createdAt,value
2022-11-08T00:04:26.158Z,198.80
2022-11-08T00:09:26.135Z,121.70
2022-11-08T00:14:25.367Z,67.40
2022-11-08T00:19:27.556Z,48.50
2022-11-08T00:24:25.734Z,53.00
2022-11-08T00:29:23.907Z,90.20
2022-11-08T00:34:22.096Z,53.70
2022-11-08T00:39:22.277Z,48.10
2022-11-08T00:44:21.450Z,41.70
2022-11-08T00:49:20.615Z,45.30
2022-11-08T00:54:18.803Z,34.60
2022-11-08T00:59:17.980Z,49.70
2022-11-08T01:04:18.176Z,30.50
2022-11-08T01:09:17.389Z,31.80
2022-11-08T01:14:15.675Z,20.20
2022-11-08T01:19:15.864Z,18.40
2022-11-08T01:24:14.062Z,21.20
2022-11-08T01:29:13.258Z,19.20
2022-11-08T01:34:12.439Z,19.80
2022-11-08T01:39:13.617Z,16.40
2022-11-08T01:44:10.796Z,16.30
2022-11-08T01:49:11.996Z,15.50
2022-11-08T01:54:09.334Z,15.30
2022-11-08T01:59:08.677Z,13.60
2022-11-08T02:04:08.806Z,14.60
2022-11-08T02:09:07.143Z,12.90
2022-11-08T02:14:06.259Z,14.10
2022-11-08T02:19:06.619Z,13.90
2022-11-08T02:24:04.769Z,13.00
2022-11-08T02:29:03.910Z,10.20
2022-11-08T02:34:04.058Z,10.20
2022-11-08T02:39:03.220Z,10.00
2022-11-08T02:44:02.354Z,11.30
2022-11-08T02:49:00.721Z,9.00
2022-11-08T02:53:59.862Z,9.20
2022-11-08T02:59:01.157Z,8.70
2022-11-08T03:03:58.447Z,6.80
2022-11-08T03:08:59.752Z,7.10
2022-11-08T03:13:57.023Z,5.50
2022-11-08T03:18:55.329Z,6.20
2022-11-08T03:23:55.633Z,5.30
2022-11-08T03:28:57.971Z,5.70
2022-11-08T03:33:53.271Z,4.70
2022-11-08T03:38:53.581Z,4.70
2022-11-08T03:43:52.931Z,4.90
2022-11-08T03:48:52.246Z,4.90
2022-11-08T03:53:52.556Z,4.20
2022-11-08T03:58:50.857Z,4.60
2022-11-08T04:03:51.141Z,3.90
2022-11-08T04:08:49.576Z,4.90
2022-11-08T04:13:48.672Z,4.70
2022-11-08T04:18:49.982Z,4.20
2022-11-08T04:23:47.284Z,3.50
2022-11-08T04:28:46.625Z,3.70
2022-11-08T04:33:45.934Z,4.20
2022-11-08T04:38:45.238Z,4.00
2022-11-08T04:43:44.573Z,3.10
2022-11-08T04:48:43.770Z,3.20
2022-11-08T04:53:44.076Z,3.80
2022-11-08T04:58:42.193Z,4.40
2022-11-08T05:03:41.336Z,3.10
2022-11-08T05:08:40.622Z,2.80
2022-11-08T05:13:40.931Z,3.60
2022-11-08T05:18:41.743Z,2.90
2022-11-08T05:23:37.527Z,3.40
2022-11-08T05:28:39.834Z,3.00
2022-11-08T05:33:37.156Z,3.70
2022-11-08T05:38:36.470Z,4.50
2022-11-08T05:43:35.782Z,5.10
2022-11-08T05:48:37.115Z,4.80
2022-11-08T05:53:34.432Z,4.80
2022-11-08T05:58:34.764Z,3.70
2022-11-08T06:03:35.112Z,4.90
2022-11-08T06:08:33.424Z,5.80
2022-11-08T06:13:33.300Z,6.90
2022-11-08T06:18:32.017Z,8.90
2022-11-08T06:23:30.357Z,5.10
2022-11-08T06:28:29.468Z,6.10
2022-11-08T06:33:29.696Z,7.50
2022-11-08T06:38:28.992Z,4.70
2022-11-08T06:43:27.732Z,5.40
2022-11-08T06:48:32.381Z,12.80
2022-11-08T06:53:25.763Z,2.90
2022-11-08T06:58:25.080Z,2.20
2022-11-08T07:03:25.387Z,2.60
2022-11-08T07:08:24.375Z,1.60
2022-11-08T07:13:22.997Z,2.40
2022-11-08T07:18:24.346Z,1.70
2022-11-08T07:23:21.849Z,3.20
2022-11-08T07:28:23.905Z,3.10
2022-11-08T07:33:21.375Z,1.80
2022-11-08T07:38:19.320Z,2.30
2022-11-08T07:43:18.435Z,2.50
2022-11-08T07:48:16.759Z,2.10
2022-11-08T07:53:17.381Z,2.00
2022-11-08T07:58:16.309Z,2.00
2022-11-08T08:03:15.654Z,2.10
2022-11-08T08:08:15.616Z,1.70
2022-11-08T08:13:15.142Z,5.50
2022-11-08T08:18:14.252Z,7.10
2022-11-08T08:23:12.542Z,6.30
2022-11-08T08:28:12.852Z,6.30
2022-11-08T08:38:10.356Z,5.20
2022-11-08T08:43:10.708Z,7.50
2022-11-08T08:48:09.852Z,5.20
2022-11-08T08:53:08.193Z,7.10
2022-11-08T08:58:07.330Z,5.70
2022-11-08T09:03:06.601Z,6.00
2022-11-08T09:08:06.961Z,5.70
2022-11-08T09:13:06.135Z,4.60
2022-11-08T09:18:04.469Z,5.50
2022-11-08T09:23:04.668Z,5.60
2022-11-08T09:28:03.815Z,8.40
2022-11-08T09:33:03.174Z,5.30
2022-11-08T09:38:01.044Z,4.40
2022-11-08T09:43:01.371Z,4.10
2022-11-08T09:48:04.810Z,5.10
2022-11-08T09:52:59.844Z,4.50
2022-11-08T09:57:59.166Z,4.50
2022-11-08T10:02:59.470Z,2.90
2022-11-08T10:07:56.812Z,4.30
2022-11-08T10:12:56.124Z,4.40
2022-11-08T10:17:56.453Z,4.50
2022-11-08T10:22:54.847Z,3.60
2022-11-08T10:27:53.775Z,3.20
2022-11-08T10:32:52.368Z,3.90
2022-11-08T10:37:53.338Z,3.70
2022-11-08T10:42:51.654Z,3.70
2022-11-08T10:47:50.992Z,3.60
2022-11-08T10:52:51.153Z,4.50
2022-11-08T10:57:50.263Z,3.60
2022-11-08T11:02:49.650Z,3.10
2022-11-08T11:07:49.816Z,5.30
2022-11-08T11:12:47.128Z,5.00
2022-11-08T11:17:46.088Z,4.90
2022-11-08T11:22:45.268Z,4.40
2022-11-08T11:27:45.499Z,5.80
2022-11-08T11:32:43.582Z,4.20
2022-11-08T11:37:42.740Z,4.90
2022-11-08T11:42:46.272Z,4.20
2022-11-08T11:47:41.329Z,7.80
2022-11-08T11:52:41.679Z,4.80
2022-11-08T11:57:39.963Z,4.70
2022-11-08T12:02:39.261Z,7.60
2022-11-08T12:07:40.599Z,4.80
2022-11-08T12:12:37.893Z,4.50
2022-11-08T12:17:37.233Z,4.00
2022-11-08T12:22:37.391Z,4.60
2022-11-08T12:27:35.534Z,4.20
2022-11-08T12:32:34.649Z,6.40
2022-11-08T12:37:33.985Z,5.80
2022-11-08T12:42:33.301Z,5.50
2022-11-08T12:47:34.621Z,6.80
2022-11-08T12:52:32.930Z,4.80
2022-11-08T12:57:31.310Z,10.50
2022-11-08T13:02:30.407Z,8.00
2022-11-08T13:07:31.724Z,9.90
2022-11-08T13:12:29.023Z,6.10
2022-11-08T13:17:28.331Z,4.70
2022-11-08T13:22:27.649Z,4.20
2022-11-08T13:27:26.951Z,5.60
2022-11-08T13:32:26.250Z,5.90
2022-11-08T13:37:26.603Z,20.60
2022-11-08T13:42:24.837Z,35.00
2022-11-08T13:47:23.950Z,49.40
2022-11-08T13:52:23.265Z,31.90
2022-11-08T13:57:23.618Z,25.00
2022-11-08T14:02:22.725Z,10.30
2022-11-08T14:07:24.950Z,8.40
2022-11-08T14:12:21.380Z,7.00
2022-11-08T14:17:19.705Z,6.80
2022-11-08T14:22:20.045Z,7.40
2022-11-08T14:27:18.223Z,6.50
2022-11-08T14:32:18.509Z,6.20
2022-11-08T14:37:17.479Z,9.30
2022-11-08T14:42:15.794Z,23.20
2022-11-08T14:47:18.276Z,22.50
2022-11-08T14:52:13.667Z,34.40
2022-11-08T14:57:14.663Z,13.90
2022-11-08T15:02:13.974Z,25.80
2022-11-08T15:07:13.492Z,22.70
2022-11-08T15:12:11.774Z,21.90
2022-11-08T15:17:10.730Z,26.60
2022-11-08T15:22:10.027Z,9.30
2022-11-08T15:27:10.356Z,14.90
2022-11-08T15:32:08.963Z,15.40
2022-11-08T15:37:11.082Z,21.20
2022-11-08T15:42:08.096Z,31.30
2022-11-08T15:47:06.404Z,41.90
2022-11-08T15:52:05.737Z,34.10
2022-11-08T15:57:06.951Z,15.00
2022-11-08T16:02:04.685Z,20.90
2022-11-08T16:07:03.574Z,13.00
2022-11-08T16:12:04.748Z,20.30
2022-11-08T16:17:00.093Z,28.20
2022-11-08T16:22:02.527Z,37.40
2022-11-08T16:27:01.465Z,34.10
2022-11-08T16:32:00.660Z,23.80
2022-11-08T16:36:59.233Z,19.50
2022-11-08T16:41:59.376Z,24.70
2022-11-08T16:46:59.181Z,30.00
2022-11-08T16:51:56.624Z,31.10
2022-11-08T16:57:20.591Z,22.60
2022-11-08T17:01:54.885Z,19.40
2022-11-08T17:06:54.541Z,17.80
2022-11-08T17:11:54.447Z,10.90
2022-11-08T17:16:52.884Z,13.40
2022-11-08T17:21:51.984Z,12.70
2022-11-08T17:26:53.226Z,13.80
2022-11-08T17:31:51.692Z,17.00
2022-11-08T17:36:49.669Z,12.70
2022-11-08T17:41:49.333Z,13.60
2022-11-08T17:46:48.631Z,13.30
2022-11-08T17:51:47.929Z,12.40
2022-11-08T17:56:52.022Z,10.60
2022-11-08T18:01:46.589Z,10.20
2022-11-08T18:06:46.707Z,9.50
2022-11-08T18:11:43.996Z,10.40
2022-11-08T18:16:45.095Z,14.20
2022-11-08T18:21:44.373Z,8.90
2022-11-08T18:26:43.687Z,10.00
2022-11-08T18:31:44.018Z,9.20
2022-11-08T18:36:41.840Z,12.00
2022-11-08T18:41:47.356Z,11.20
2022-11-08T18:46:43.155Z,10.40
2022-11-08T18:51:38.937Z,10.80
2022-11-08T18:56:41.231Z,10.30
2022-11-08T19:01:37.644Z,10.00
2022-11-08T19:06:41.543Z,12.00
2022-11-08T19:11:36.229Z,16.50
2022-11-08T19:16:36.390Z,17.00
2022-11-08T19:21:34.694Z,15.30
2022-11-08T19:26:34.089Z,13.20
2022-11-08T19:31:33.343Z,12.70
2022-11-08T19:36:32.490Z,7.90
2022-11-08T19:41:33.288Z,9.80
2022-11-08T19:46:31.578Z,10.90
2022-11-08T19:51:30.327Z,10.90
2022-11-08T19:56:57.718Z,10.20
2022-11-08T20:01:28.697Z,17.10
2022-11-08T20:06:29.882Z,84.20
2022-11-08T20:11:27.063Z,180.20
2022-11-08T20:16:25.849Z,159.70
2022-11-08T20:21:25.485Z,161.40
2022-11-08T20:26:27.651Z,279.50
2022-11-08T20:31:23.638Z,302.20
2022-11-08T20:36:24.735Z,246.40
2022-11-08T20:41:21.361Z,223.30
2022-11-08T20:46:22.193Z,199.10
2022-11-08T20:51:20.922Z,183.30
2022-11-08T20:56:23.031Z,382.10
2022-11-08T21:01:19.354Z,359.90
2022-11-08T21:06:22.945Z,295.90
2022-11-08T21:11:18.496Z,397.90
2022-11-08T21:16:38.607Z,383.70
2022-11-08T21:21:15.857Z,335.00
2022-11-08T21:26:15.280Z,118.60
2022-11-08T21:31:15.301Z,205.20
2022-11-08T21:36:13.430Z,311.60
2022-11-08T21:41:13.597Z,212.10
2022-11-08T21:46:11.732Z,132.40
2022-11-08T21:51:11.896Z,138.20
2022-11-08T21:56:11.070Z,99.90
2022-11-08T22:01:09.302Z,61.80
2022-11-08T22:06:07.575Z,117.90
